Time;durP1;ratioP1;P1;durP2;ratioP2;P2;SDS_P1;SDS_P2;PMS_P1;PMS_P2;Temp;Humidity;BMP_temperature;BMP_pressure;BME280_temperature;BME280_humidity;BME280_pressure;Samples;Min_cycle;Max_cycle;Signal;HPM_P1;HPM_P2
2022/12/31 00:01:12;;;;;;;0.30;0.30;;;16.20;99.90;;;;;;5046096;28;20344;-29
2022/12/31 00:03:42;;;;;;;1.43;0.40;;;16.20;99.90;;;;;;5049552;28;20231;-29
2022/12/31 00:06:31;;;;;;;0.57;0.40;;;16.20;99.90;;;;;;5059931;28;20641;-28
2022/12/31 00:09:02;;;;;;;1.43;0.30;;;16.30;99.90;;;;;;5057251;28;20204;-29
2022/12/31 00:11:31;;;;;;;0.57;0.30;;;16.30;99.90;;;;;;5060344;28;20286;-29
2022/12/31 00:13:58;;;;;;;0.63;0.50;;;16.20;99.90;;;;;;5065318;28;20220;-29
2022/12/31 00:16:35;;;;;;;1.03;0.20;;;16.30;99.90;;;;;;5066393;28;20672;-29
2022/12/31 00:19:03;;;;;;;0.30;0.30;;;16.30;99.90;;;;;;5066212;28;20321;-29
2022/12/31 00:21:34;;;;;;;0.20;0.20;;;16.30;99.90;;;;;;5061506;28;20215;-29
2022/12/31 00:24:05;;;;;;;1.37;0.20;;;16.30;99.90;;;;;;5065137;28;20239;-29
2022/12/31 00:26:37;;;;;;;0.33;0.20;;;16.40;99.90;;;;;;5066243;28;20682;-29
2022/12/31 00:29:05;;;;;;;0.20;0.20;;;16.30;99.90;;;;;;5064382;28;20704;-29
2022/12/31 00:31:36;;;;;;;0.20;0.20;;;16.30;99.90;;;;;;5066491;28;20199;-29
2022/12/31 00:34:06;;;;;;;0.60;0.30;;;16.30;99.90;;;;;;5066021;28;20201;-29
2022/12/31 00:36:39;;;;;;;0.20;0.20;;;16.30;99.90;;;;;;5066794;28;20740;-29
2022/12/31 00:39:09;;;;;;;0.20;0.20;;;16.40;99.90;;;;;;5066253;28;20211;-29
2022/12/31 00:41:42;;;;;;;1.60;0.20;;;16.40;99.90;;;;;;5065099;28;20268;-28
2022/12/31 00:44:13;;;;;;;0.20;0.20;;;16.40;99.90;;;;;;5065203;28;20222;-29
2022/12/31 00:46:43;;;;;;;0.63;0.20;;;16.40;99.90;;;;;;5066165;28;20208;-28
2022/12/31 00:49:12;;;;;;;0.90;0.30;;;16.40;99.90;;;;;;5066050;28;20186;-32
2022/12/31 00:51:39;;;;;;;1.40;0.20;;;16.40;99.90;;;;;;5066123;28;20780;-29
2022/12/31 00:54:07;;;;;;;1.90;0.30;;;16.50;99.90;;;;;;5065928;28;20206;-29
2022/12/31 00:56:36;;;;;;;0.40;0.40;;;16.50;99.90;;;;;;5065790;28;20310;-28
2022/12/31 00:59:04;;;;;;;0.40;0.20;;;16.50;99.90;;;;;;5052238;28;20314;-29
2022/12/31 01:01:37;;;;;;;2.50;0.30;;;16.50;99.90;;;;;;5048854;28;20699;-31
2022/12/31 01:04:10;;;;;;;1.03;0.30;;;16.50;99.90;;;;;;5065331;28;20210;-29
2022/12/31 01:06:38;;;;;;;0.60;0.30;;;16.60;99.90;;;;;;5064545;28;20199;-28
2022/12/31 01:09:09;;;;;;;0.10;0.10;;;16.50;99.90;;;;;;5062321;28;20212;-29
2022/12/31 01:11:36;;;;;;;0.70;0.30;;;16.50;99.90;;;;;;5054027;28;20298;-28
2022/12/31 01:14:05;;;;;;;0.70;0.30;;;16.60;99.90;;;;;;5064133;28;20235;-29
2022/12/31 01:16:47;;;;;;;0.37;0.20;;;16.60;99.90;;;;;;5054384;28;20223;-29
2022/12/31 01:19:21;;;;;;;0.20;0.20;;;16.60;99.90;;;;;;5049076;28;20204;-29
2022/12/31 01:21:51;;;;;;;0.20;0.20;;;16.60;99.90;;;;;;5055555;28;20212;-29
2022/12/31 01:24:21;;;;;;;0.60;0.30;;;16.70;99.90;;;;;;5055101;28;20212;-29
2022/12/31 01:26:50;;;;;;;0.30;0.20;;;16.60;99.90;;;;;;5047065;28;20625;-29
2022/12/31 01:29:17;;;;;;;0.37;0.20;;;16.70;99.90;;;;;;5043640;28;20192;-29
2022/12/31 01:31:44;;;;;;;0.53;0.27;;;16.70;99.90;;;;;;5053141;28;20226;-29
2022/12/31 01:34:11;;;;;;;0.20;0.20;;;16.70;99.90;;;;;;5056067;28;20747;-29
2022/12/31 01:36:39;;;;;;;2.33;0.37;;;16.70;99.90;;;;;;5052968;28;20204;-29
2022/12/31 01:39:08;;;;;;;0.30;0.20;;;16.70;99.90;;;;;;5064751;28;20294;-29
2022/12/31 01:41:40;;;;;;;0.30;0.30;;;16.80;99.90;;;;;;5065693;28;20302;-29
2022/12/31 01:44:27;;;;;;;0.53;0.20;;;16.80;99.90;;;;;;5062906;28;20202;-29
2022/12/31 01:47:02;;;;;;;2.03;0.37;;;16.80;99.90;;;;;;5057758;28;20235;-29
2022/12/31 01:49:43;;;;;;;1.17;0.37;;;16.80;99.90;;;;;;5063785;28;20223;-29
2022/12/31 01:52:19;;;;;;;1.27;0.20;;;16.80;99.90;;;;;;5065680;28;20687;-29
2022/12/31 01:55:14;;;;;;;1.03;0.37;;;16.90;99.90;;;;;;5064208;28;20233;-29
2022/12/31 01:57:45;;;;;;;0.47;0.10;;;17.00;99.90;;;;;;5063239;28;20218;-29
2022/12/31 02:00:13;;;;;;;0.10;0.10;;;16.90;99.90;;;;;;5045444;28;20671;-29
2022/12/31 02:02:40;;;;;;;1.03;0.27;;;17.00;99.90;;;;;;5048366;28;20224;-29
2022/12/31 02:05:29;;;;;;;0.20;0.20;;;17.00;99.90;;;;;;5058188;28;20247;-29
2022/12/31 02:08:00;;;;;;;1.07;0.20;;;17.00;99.90;;;;;;5046412;28;20733;-29
2022/12/31 02:10:27;;;;;;;0.57;0.30;;;17.00;99.90;;;;;;5058445;28;20588;-29
2022/12/31 02:13:03;;;;;;;0.93;0.10;;;17.00;99.90;;;;;;5052214;28;20216;-29
2022/12/31 02:15:51;;;;;;;0.33;0.20;;;16.90;99.90;;;;;;5045201;28;20200;-29
2022/12/31 02:18:28;;;;;;;0.47;0.30;;;17.00;99.90;;;;;;5059634;28;20291;-29
2022/12/31 02:21:40;;;;;;;0.20;0.20;;;17.00;99.90;;;;;;5051045;28;20207;-29
2022/12/31 02:24:37;;;;;;;0.33;0.17;;;17.00;99.90;;;;;;5021511;28;20752;-29
2022/12/31 02:27:51;;;;;;;1.03;0.33;;;17.00;99.90;;;;;;5018350;28;20197;-29
2022/12/31 02:30:25;;;;;;;1.03;0.30;;;17.00;99.90;;;;;;5036983;28;20204;-29
2022/12/31 02:33:06;;;;;;;0.97;0.23;;;17.10;99.90;;;;;;5045550;28;20250;-29
2022/12/31 02:36:01;;;;;;;0.63;0.33;;;17.10;99.90;;;;;;5048647;28;20257;-29
2022/12/31 02:38:35;;;;;;;2.17;0.40;;;17.10;99.90;;;;;;5051690;28;20199;-29
2022/12/31 02:41:02;;;;;;;2.40;0.50;;;17.10;99.90;;;;;;5051408;28;20575;-29
2022/12/31 02:43:31;;;;;;;1.13;0.20;;;17.00;99.90;;;;;;5047277;28;20334;-29
2022/12/31 02:46:03;;;;;;;1.77;0.47;;;17.00;99.90;;;;;;5048619;28;20200;-29
2022/12/31 02:48:42;;;;;;;1.57;0.40;;;17.00;99.90;;;;;;5055314;28;20656;-29
2022/12/31 02:51:44;;;;;;;1.40;0.40;;;17.00;99.90;;;;;;5068329;28;20335;-29
2022/12/31 02:54:25;;;;;;;1.07;0.40;;;17.10;99.90;;;;;;5068359;28;20202;-29
2022/12/31 02:57:20;;;;;;;2.57;0.50;;;17.00;99.90;;;;;;5067888;28;20188;-29
2022/12/31 03:02:47;;;;;;;1.83;0.50;;;17.00;99.90;;;;;;5068066;28;20255;-29
2022/12/31 03:05:22;;;;;;;3.17;0.70;;;17.00;99.90;;;;;;5050491;28;20303;-29
2022/12/31 03:07:49;;;;;;;2.10;0.75;;;17.00;99.90;;;;;;5047925;28;20211;-29
2022/12/31 03:10:16;;;;;;;1.33;0.63;;;17.00;99.90;;;;;;5046513;28;20212;-29
2022/12/31 03:12:47;;;;;;;1.57;0.40;;;17.00;99.90;;;;;;5045861;28;20777;-29
2022/12/31 03:15:26;;;;;;;1.87;0.60;;;17.00;99.90;;;;;;5066564;28;20601;-29
2022/12/31 03:18:07;;;;;;;2.27;0.70;;;17.00;99.90;;;;;;5067859;28;20211;-29
2022/12/31 03:23:26;;;;;;;1.73;0.47;;;17.00;99.90;;;;;;5053884;28;20224;-29
2022/12/31 03:25:57;;;;;;;1.67;0.50;;;17.10;99.90;;;;;;5066318;28;20253;-29
2022/12/31 03:28:30;;;;;;;3.93;0.60;;;17.10;99.90;;;;;;5065079;28;20302;-29
2022/12/31 03:31:07;;;;;;;3.10;0.50;;;17.00;99.90;;;;;;5049166;28;20215;-29
2022/12/31 03:33:41;;;;;;;2.10;0.60;;;17.10;99.90;;;;;;5055836;28;20196;-29
2022/12/31 03:36:17;;;;;;;1.93;0.60;;;17.10;99.90;;;;;;5067596;28;20199;-29
2022/12/31 03:38:46;;;;;;;1.37;0.43;;;17.10;99.90;;;;;;5060703;28;21011;-29
2022/12/31 03:41:18;;;;;;;1.50;0.40;;;17.10;99.90;;;;;;5055900;28;20207;-29
2022/12/31 03:43:48;;;;;;;1.43;0.50;;;17.10;99.90;;;;;;5065808;28;20227;-29
2022/12/31 03:46:15;;;;;;;2.20;0.47;;;17.10;99.90;;;;;;5062624;28;20216;-29
2022/12/31 03:48:42;;;;;;;2.47;0.63;;;17.10;99.90;;;;;;5063640;28;20502;-29
2022/12/31 03:51:09;;;;;;;1.13;0.50;;;17.10;99.90;;;;;;5067570;28;20282;-29
2022/12/31 03:53:36;;;;;;;3.20;0.80;;;17.10;99.90;;;;;;5061820;28;20801;-29
2022/12/31 03:56:06;;;;;;;2.00;0.63;;;17.10;99.90;;;;;;5045641;28;20214;-29
2022/12/31 03:58:35;;;;;;;2.40;0.50;;;17.20;99.90;;;;;;5055572;28;20206;-29
2022/12/31 04:01:05;;;;;;;1.53;0.40;;;17.10;99.90;;;;;;5049389;28;20658;-29
2022/12/31 04:03:34;;;;;;;1.97;0.60;;;17.10;99.90;;;;;;5065414;28;20654;-29
2022/12/31 04:06:01;;;;;;;1.80;0.67;;;17.20;99.90;;;;;;5065833;28;20348;-29
2022/12/31 04:08:29;;;;;;;3.03;0.63;;;17.20;99.90;;;;;;5053120;28;20191;-29
2022/12/31 04:10:59;;;;;;;1.63;0.50;;;17.20;99.90;;;;;;5066738;28;20210;-29
2022/12/31 04:13:26;;;;;;;1.63;0.60;;;17.20;99.90;;;;;;5066317;28;20223;-29
2022/12/31 04:15:53;;;;;;;1.70;0.53;;;17.30;99.90;;;;;;5066813;28;20295;-29
2022/12/31 04:18:22;;;;;;;2.13;0.60;;;17.20;99.90;;;;;;5066347;28;20211;-29
2022/12/31 04:20:54;;;;;;;1.83;0.50;;;17.30;99.90;;;;;;5067120;28;20308;-29
2022/12/31 04:23:21;;;;;;;2.13;0.50;;;17.30;99.90;;;;;;5065569;28;20627;-29
2022/12/31 04:25:52;;;;;;;3.73;0.77;;;17.30;99.90;;;;;;5067206;28;20203;-28
2022/12/31 04:28:22;;;;;;;1.77;0.40;;;17.20;99.90;;;;;;5065480;28;20625;-29
2022/12/31 04:30:52;;;;;;;1.27;0.40;;;17.30;99.90;;;;;;5066581;28;20206;-29
2022/12/31 04:33:19;;;;;;;2.73;0.50;;;17.30;99.90;;;;;;5066169;28;20595;-29
2022/12/31 04:35:46;;;;;;;1.83;0.60;;;17.30;99.90;;;;;;5066231;28;20211;-29
2022/12/31 04:38:19;;;;;;;1.77;0.50;;;17.40;99.90;;;;;;5063396;28;20208;-29
2022/12/31 04:43:36;;;;;;;4.68;0.77;;;17.40;99.90;;;;;;5045573;28;20224;-29
2022/12/31 04:46:04;;;;;;;2.67;0.88;;;17.40;99.90;;;;;;5046613;28;20288;-29
2022/12/31 04:48:31;;;;;;;2.57;0.57;;;17.40;99.90;;;;;;5045938;28;20200;-29
2022/12/31 04:50:59;;;;;;;2.03;0.53;;;17.40;99.90;;;;;;5045943;28;20740;-29
2022/12/31 04:53:31;;;;;;;3.17;0.70;;;17.40;99.90;;;;;;5058417;28;20780;-29
2022/12/31 04:56:00;;;;;;;2.00;0.80;;;17.40;99.90;;;;;;5064428;28;20887;-29
2022/12/31 04:58:28;;;;;;;2.23;0.67;;;17.40;99.90;;;;;;5055492;28;20200;-29
2022/12/31 05:00:55;;;;;;;3.57;0.90;;;17.40;99.90;;;;;;5052695;28;20199;-29
2022/12/31 05:03:24;;;;;;;2.67;0.57;;;17.40;99.90;;;;;;5064230;28;20229;-29
2022/12/31 05:05:52;;;;;;;1.83;0.40;;;17.40;99.90;;;;;;5060519;28;20207;-29
2022/12/31 05:08:20;;;;;;;1.77;0.50;;;17.50;99.90;;;;;;5052430;28;20284;-29
2022/12/31 05:10:48;;;;;;;1.73;0.57;;;17.50;99.90;;;;;;5065494;28;20199;-29
2022/12/31 05:13:15;;;;;;;3.77;0.70;;;17.40;99.90;;;;;;5055868;28;20200;-29
2022/12/31 05:15:47;;;;;;;2.93;0.77;;;17.40;99.90;;;;;;5054801;28;20200;-29
2022/12/31 05:18:17;;;;;;;4.30;0.60;;;17.40;99.90;;;;;;5056728;28;20250;-29
2022/12/31 05:20:45;;;;;;;3.17;0.70;;;17.50;99.90;;;;;;5045709;28;20689;-29
2022/12/31 05:23:16;;;;;;;2.90;0.73;;;17.50;99.90;;;;;;5046792;28;20220;-29
2022/12/31 05:25:47;;;;;;;2.33;0.50;;;17.50;99.90;;;;;;5049039;28;20253;-29
2022/12/31 05:28:17;;;;;;;1.23;0.53;;;17.50;99.90;;;;;;5057495;28;20220;-29
2022/12/31 05:30:46;;;;;;;1.80;0.40;;;17.50;99.90;;;;;;5059946;28;20251;-29
2022/12/31 05:33:13;;;;;;;1.57;0.53;;;17.50;99.90;;;;;;5065290;28;20693;-29
2022/12/31 05:35:41;;;;;;;2.97;0.57;;;17.50;99.90;;;;;;5065436;28;20227;-29
2022/12/31 05:38:08;;;;;;;2.57;0.40;;;17.50;99.90;;;;;;5065454;28;20238;-29
2022/12/31 05:40:35;;;;;;;2.87;0.73;;;17.50;99.90;;;;;;5065777;28;20279;-29
2022/12/31 05:43:02;;;;;;;3.17;0.50;;;17.50;99.90;;;;;;5064273;28;20649;-29
2022/12/31 05:45:31;;;;;;;3.47;0.60;;;17.50;99.90;;;;;;5064766;28;20200;-29
2022/12/31 05:47:59;;;;;;;1.27;0.60;;;17.60;99.90;;;;;;5061759;28;20227;-29
2022/12/31 05:50:26;;;;;;;2.47;0.50;;;17.50;99.90;;;;;;5064971;28;20259;-29
2022/12/31 05:52:56;;;;;;;3.83;0.60;;;17.60;99.90;;;;;;5064925;28;20788;-29
2022/12/31 05:55:23;;;;;;;1.90;0.47;;;17.60;99.90;;;;;;5065252;28;20229;-29
2022/12/31 05:57:50;;;;;;;2.90;0.77;;;17.60;99.90;;;;;;5064141;28;20587;-29
2022/12/31 06:00:17;;;;;;;2.63;0.60;;;17.70;99.90;;;;;;5055571;28;20313;-29
2022/12/31 06:02:47;;;;;;;2.07;0.60;;;17.70;99.90;;;;;;5044647;28;20227;-29
2022/12/31 06:05:19;;;;;;;4.37;0.90;;;17.60;99.90;;;;;;5046418;28;20204;-29
2022/12/31 06:07:56;;;;;;;3.20;0.67;;;17.70;99.90;;;;;;5055717;28;20293;-29
2022/12/31 06:10:26;;;;;;;4.03;0.80;;;17.70;99.90;;;;;;5056946;28;20199;-29
2022/12/31 06:12:55;;;;;;;2.50;0.50;;;17.70;99.90;;;;;;5053202;28;20243;-29
2022/12/31 06:15:22;;;;;;;4.53;0.70;;;17.70;99.90;;;;;;5051104;28;20224;-29
2022/12/31 06:17:49;;;;;;;5.53;1.20;;;17.60;99.90;;;;;;5049950;28;20733;-29
2022/12/31 06:20:17;;;;;;;3.53;0.77;;;17.70;99.90;;;;;;5062261;28;20204;-29
2022/12/31 06:22:44;;;;;;;3.40;0.70;;;17.70;99.90;;;;;;5057186;28;20308;-29
2022/12/31 06:25:11;;;;;;;3.50;0.80;;;17.70;99.90;;;;;;5050505;28;20675;-29
2022/12/31 06:27:38;;;;;;;4.20;0.77;;;17.70;99.90;;;;;;5052750;28;20817;-29
2022/12/31 06:30:06;;;;;;;5.17;0.70;;;17.70;99.90;;;;;;5052776;28;20235;-29
2022/12/31 06:32:33;;;;;;;3.37;0.80;;;17.70;99.90;;;;;;5059238;28;20196;-29
2022/12/31 06:35:03;;;;;;;2.90;0.70;;;17.80;99.90;;;;;;5068440;28;20249;-29
2022/12/31 06:37:31;;;;;;;3.40;0.63;;;17.80;99.90;;;;;;5065709;28;20208;-29
2022/12/31 06:39:58;;;;;;;2.63;0.73;;;17.80;99.90;;;;;;5068298;28;20212;-29
2022/12/31 06:42:29;;;;;;;4.87;1.00;;;17.70;99.90;;;;;;5059641;28;20312;-29
2022/12/31 06:45:00;;;;;;;2.57;1.00;;;17.80;99.90;;;;;;5053213;28;20365;-29
2022/12/31 06:47:27;;;;;;;1.50;0.73;;;17.80;99.90;;;;;;5058423;28;20208;-29
2022/12/31 06:49:54;;;;;;;2.60;0.77;;;17.70;99.90;;;;;;5054366;28;20281;-29
2022/12/31 06:52:24;;;;;;;2.27;0.60;;;17.70;99.90;;;;;;5053530;28;20196;-29
2022/12/31 06:54:51;;;;;;;1.90;0.63;;;17.70;99.90;;;;;;5047116;28;20587;-29
2022/12/31 06:57:22;;;;;;;2.23;0.70;;;17.80;99.90;;;;;;5046280;28;20212;-29
2022/12/31 06:59:49;;;;;;;2.80;0.70;;;17.80;99.90;;;;;;5050672;28;20581;-29
2022/12/31 07:02:48;;;;;;;2.97;0.73;;;17.80;99.90;;;;;;5055893;28;20184;-29
2022/12/31 07:05:38;;;;;;;3.00;0.93;;;17.90;99.90;;;;;;5047072;28;20213;-29
2022/12/31 07:08:28;;;;;;;2.43;0.60;;;17.90;99.90;;;;;;5062349;28;20210;-29
2022/12/31 07:11:03;;;;;;;3.27;0.70;;;17.80;99.90;;;;;;5067608;28;20524;-29
2022/12/31 07:14:00;;;;;;;3.87;0.90;;;17.90;99.90;;;;;;5047639;28;20199;-30
2022/12/31 07:16:49;;;;;;;2.13;0.53;;;17.80;99.90;;;;;;5049777;28;20596;-29
2022/12/31 07:19:48;;;;;;;3.07;0.77;;;17.80;99.90;;;;;;5045659;28;20545;-29
2022/12/31 07:22:23;;;;;;;2.67;0.70;;;17.80;99.90;;;;;;5046841;28;20246;-29
2022/12/31 07:24:51;;;;;;;5.43;0.83;;;17.80;99.90;;;;;;5058234;28;20315;-29
2022/12/31 07:27:33;;;;;;;2.57;0.63;;;17.80;99.90;;;;;;5065569;28;20265;-29
2022/12/31 07:30:20;;;;;;;1.60;0.50;;;17.80;99.90;;;;;;5048530;28;20251;-30
2022/12/31 07:33:05;;;;;;;1.80;0.60;;;17.70;99.90;;;;;;5056277;28;21014;-29
2022/12/31 07:36:23;;;;;;;2.93;0.80;;;17.70;99.90;;;;;;5048583;28;20298;-29
2022/12/31 07:39:09;;;;;;;3.97;1.00;;;17.70;99.90;;;;;;5012765;28;20204;-29
2022/12/31 07:42:06;;;;;;;5.23;1.07;;;17.70;99.90;;;;;;5024390;28;20259;-29
2022/12/31 07:45:03;;;;;;;4.37;0.80;;;17.70;99.90;;;;;;5050309;28;20223;-29
2022/12/31 07:47:34;;;;;;;2.67;0.50;;;17.70;99.90;;;;;;5047644;28;20641;-29
2022/12/31 07:50:01;;;;;;;2.03;1.03;;;17.60;99.90;;;;;;5044427;28;20236;-29
2022/12/31 07:52:28;;;;;;;2.70;0.67;;;17.60;99.90;;;;;;5046864;28;20572;-29
2022/12/31 07:54:58;;;;;;;3.17;0.83;;;17.60;99.90;;;;;;5051021;28;20295;-29
2022/12/31 07:57:33;;;;;;;2.37;1.00;;;17.60;99.90;;;;;;5052058;28;20257;-29
2022/12/31 08:00:14;;;;;;;2.40;0.60;;;17.60;99.90;;;;;;5058951;28;20230;-29
2022/12/31 08:02:51;;;;;;;2.47;0.60;;;17.70;99.90;;;;;;5055671;28;20200;-29
2022/12/31 08:05:56;;;;;;;2.33;0.80;;;17.70;99.90;;;;;;5044944;28;20220;-29
2022/12/31 08:08:41;;;;;;;2.03;0.67;;;17.60;99.90;;;;;;5062651;28;20761;-29
2022/12/31 08:11:17;;;;;;;3.63;0.98;;;17.60;99.90;;;;;;5047613;28;21380;-30
2022/12/31 08:13:44;;;;;;;3.73;0.93;;;17.60;99.90;;;;;;5056649;28;20219;-29
2022/12/31 08:16:12;;;;;;;4.40;1.30;;;17.60;99.90;;;;;;5064181;28;20212;-29
2022/12/31 08:18:48;;;;;;;2.03;1.00;;;17.60;99.90;;;;;;5065021;28;20230;-29
2022/12/31 08:21:55;;;;;;;3.50;0.80;;;17.60;99.90;;;;;;5063260;28;20211;-29
2022/12/31 08:24:54;;;;;;;3.50;0.87;;;17.60;99.90;;;;;;5066519;28;20223;-29
2022/12/31 08:27:58;;;;;;;2.70;0.87;;;17.60;99.90;;;;;;5036494;28;20265;-29
2022/12/31 08:30:40;;;;;;;4.23;1.20;;;17.60;99.90;;;;;;5045771;28;20880;-29
2022/12/31 08:33:17;;;;;;;6.27;1.33;;;17.70;99.90;;;;;;5047618;28;20239;-29
2022/12/31 08:35:54;;;;;;;4.47;0.80;;;17.70;99.90;;;;;;5047308;28;20208;-29
2022/12/31 08:38:30;;;;;;;2.97;1.00;;;17.70;99.90;;;;;;5064878;28;20238;-29
2022/12/31 08:41:32;;;;;;;3.37;0.73;;;17.70;99.90;;;;;;5066632;28;20235;-29
2022/12/31 08:44:45;;;;;;;4.60;1.47;;;17.70;99.90;;;;;;5024835;28;20318;-29
2022/12/31 08:47:50;;;;;;;5.07;1.17;;;17.70;99.90;;;;;;5045812;28;20825;-31
2022/12/31 08:50:28;;;;;;;2.73;1.00;;;17.70;99.90;;;;;;5045514;28;20242;-31
2022/12/31 08:53:02;;;;;;;4.50;1.20;;;17.70;99.90;;;;;;5102325;27;20547;-29
2022/12/31 08:55:30;;;;;;;4.00;1.10;;;17.80;99.90;;;;;;5081614;28;20230;-29
2022/12/31 08:58:20;;;;;;;3.57;1.10;;;17.80;99.90;;;;;;5094426;28;20218;-29
2022/12/31 09:00:52;;;;;;;2.00;0.70;;;17.80;99.90;;;;;;5082906;28;20552;-29
2022/12/31 09:03:37;;;;;;;2.73;0.83;;;17.80;99.90;;;;;;5081192;28;20282;-29
2022/12/31 09:06:37;;;;;;;1.70;0.80;;;17.80;99.90;;;;;;5071930;28;20246;-29
2022/12/31 09:09:16;;;;;;;3.10;1.03;;;17.80;99.90;;;;;;5081039;28;20230;-29
2022/12/31 09:12:16;;;;;;;5.53;1.10;;;17.80;99.90;;;;;;5076587;28;20264;-29
2022/12/31 09:14:59;;;;;;;4.50;1.03;;;17.90;99.90;;;;;;5080681;28;20238;-30
2022/12/31 09:17:46;;;;;;;4.40;1.30;;;17.90;99.90;;;;;;5079780;28;20616;-29
2022/12/31 09:20:25;;;;;;;5.57;1.40;;;17.90;99.90;;;;;;5077314;28;20195;-30
2022/12/31 09:22:54;;;;;;;2.77;1.13;;;18.00;99.90;;;;;;5067401;28;20224;-29
2022/12/31 09:25:25;;;;;;;3.30;1.30;;;18.00;99.90;;;;;;5080643;28;20341;-29
2022/12/31 09:28:15;;;;;;;5.23;1.37;;;18.00;99.90;;;;;;5079861;28;20213;-29
2022/12/31 09:31:10;;;;;;;4.37;1.37;;;18.00;99.90;;;;;;5094729;28;20199;-30
2022/12/31 09:33:54;;;;;;;4.63;1.10;;;18.00;99.90;;;;;;5080180;28;20222;-29
2022/12/31 09:36:30;;;;;;;3.87;1.20;;;18.00;99.90;;;;;;5082647;28;20221;-30
2022/12/31 09:39:15;;;;;;;5.00;1.50;;;18.00;99.90;;;;;;5081249;28;20742;-30
2022/12/31 09:41:57;;;;;;;5.50;1.27;;;18.00;99.90;;;;;;5077246;28;20307;-29
2022/12/31 09:45:18;;;;;;;6.50;1.80;;;18.00;99.90;;;;;;5078087;28;20604;-30
2022/12/31 09:48:08;;;;;;;5.37;1.27;;;18.00;99.90;;;;;;5047630;28;20722;-30
2022/12/31 09:50:35;;;;;;;4.37;1.37;;;18.00;99.90;;;;;;5069522;28;20792;-31
2022/12/31 09:53:53;;;;;;;6.80;1.20;;;18.00;99.90;;;;;;5071961;28;20234;-30
2022/12/31 09:56:44;;;;;;;4.07;1.50;;;18.10;99.90;;;;;;5079047;28;20322;-30
2022/12/31 09:59:34;;;;;;;5.67;1.40;;;18.10;99.90;;;;;;5071346;28;20760;-30
2022/12/31 10:02:40;;;;;;;5.07;1.40;;;18.10;99.90;;;;;;5081384;28;20199;-30
2022/12/31 10:05:50;;;;;;;4.43;1.20;;;18.10;99.90;;;;;;5062568;28;20200;-30
2022/12/31 10:08:35;;;;;;;4.03;1.30;;;18.10;99.90;;;;;;5066060;28;20566;-30
2022/12/31 10:11:09;;;;;;;6.28;1.40;;;18.10;99.90;;;;;;5081045;28;20698;-30
2022/12/31 10:14:27;;;;;;;4.75;1.17;;;18.20;99.90;;;;;;5065711;28;20256;-30
2022/12/31 10:17:19;;;;;;;4.60;1.50;;;18.10;99.90;;;;;;5039261;28;20667;-30
2022/12/31 10:19:59;;;;;;;4.33;1.53;;;18.20;99.90;;;;;;5047860;28;20615;-30
2022/12/31 10:22:51;;;;;;;6.53;1.40;;;18.10;99.90;;;;;;5082260;28;20250;-30
2022/12/31 10:25:41;;;;;;;6.13;1.57;;;18.20;99.90;;;;;;5066626;28;20212;-30
2022/12/31 10:28:22;;;;;;;6.50;1.10;;;18.20;99.90;;;;;;5062714;28;20290;-30
2022/12/31 10:31:26;;;;;;;4.97;1.03;;;18.20;99.90;;;;;;5065826;28;20752;-30
2022/12/31 10:34:12;;;;;;;4.67;1.13;;;18.20;99.90;;;;;;5046845;28;20295;-30
2022/12/31 10:37:00;;;;;;;6.22;1.50;;;18.20;99.90;;;;;;5062228;28;20756;-30
2022/12/31 10:39:41;;;;;;;3.40;1.27;;;18.20;99.90;;;;;;5064415;28;20195;-30
2022/12/31 10:42:50;;;;;;;4.20;1.23;;;18.30;99.90;;;;;;5064341;28;20296;-30
2022/12/31 10:46:00;;;;;;;5.33;1.53;;;18.30;99.90;;;;;;5067163;28;20203;-30
2022/12/31 10:49:01;;;;;;;7.53;1.60;;;18.30;99.90;;;;;;5064980;28;20525;-30
2022/12/31 10:52:09;;;;;;;5.50;1.00;;;18.40;99.90;;;;;;5064094;28;20264;-30
2022/12/31 10:54:39;;;;;;;4.47;1.10;;;18.30;99.90;;;;;;5057247;28;20219;-30
2022/12/31 10:57:45;;;;;;;3.77;1.10;;;18.20;99.90;;;;;;5064159;28;20684;-30
2022/12/31 11:00:20;;;;;;;5.77;1.73;;;18.30;99.90;;;;;;5065513;28;20219;-30
2022/12/31 11:02:53;;;;;;;5.60;1.10;;;18.30;99.90;;;;;;5060567;28;20195;-30
2022/12/31 11:05:47;;;;;;;4.07;1.50;;;18.30;99.90;;;;;;5053418;28;20204;-30
2022/12/31 11:08:23;;;;;;;4.87;1.40;;;18.40;99.90;;;;;;5063926;28;20305;-30
2022/12/31 11:11:02;;;;;;;5.70;1.23;;;18.30;99.90;;;;;;5055702;28;20278;-30
2022/12/31 11:13:54;;;;;;;5.47;1.40;;;18.30;99.90;;;;;;5060044;28;20265;-30
2022/12/31 11:16:27;;;;;;;3.67;1.20;;;18.40;99.90;;;;;;5063955;28;20277;-30
2022/12/31 11:19:23;;;;;;;4.50;1.50;;;18.40;99.90;;;;;;5065538;28;20630;-30
2022/12/31 11:22:10;;;;;;;6.53;1.27;;;18.40;99.90;;;;;;5061124;28;20298;-30
2022/12/31 11:25:06;;;;;;;5.20;1.10;;;18.40;99.90;;;;;;5065908;28;20260;-30
2022/12/31 11:28:13;;;;;;;4.53;1.17;;;18.40;99.90;;;;;;5061016;28;20239;-30
2022/12/31 11:31:11;;;;;;;3.90;1.07;;;18.30;99.90;;;;;;5063084;28;20203;-30
2022/12/31 11:34:13;;;;;;;4.03;1.17;;;18.30;99.90;;;;;;5049022;28;20211;-30
2022/12/31 11:36:56;;;;;;;5.20;1.30;;;18.40;99.90;;;;;;5066719;28;20228;-30
2022/12/31 11:39:50;;;;;;;6.18;1.67;;;18.40;99.90;;;;;;5074787;28;20655;-30
2022/12/31 11:42:26;;;;;;;6.20;1.37;;;18.40;99.90;;;;;;5062092;28;20298;-30
2022/12/31 11:45:22;;;;;;;7.85;1.63;;;18.40;99.90;;;;;;5064466;28;20727;-30
2022/12/31 11:48:36;;;;;;;7.83;1.57;;;18.40;99.90;;;;;;5063641;28;20215;-30
2022/12/31 11:51:15;;;;;;;3.63;1.30;;;18.40;99.90;;;;;;5038966;28;20642;-30
2022/12/31 11:54:27;;;;;;;7.67;2.03;;;18.40;99.90;;;;;;5023067;28;20204;-30
2022/12/31 11:57:22;;;;;;;5.60;1.80;;;18.40;99.90;;;;;;5059450;28;20220;-30
2022/12/31 12:00:03;;;;;;;3.80;1.37;;;18.30;99.90;;;;;;5064471;28;20640;-32
2022/12/31 12:02:36;;;;;;;5.60;1.50;;;18.40;99.90;;;;;;5060899;28;20265;-33
2022/12/31 12:05:06;;;;;;;3.90;1.13;;;18.40;99.90;;;;;;5079998;28;20688;-33
2022/12/31 12:07:37;;;;;;;4.13;1.40;;;18.40;99.90;;;;;;5065486;28;20597;-33
2022/12/31 12:10:29;;;;;;;6.33;1.57;;;18.40;99.90;;;;;;5062380;28;20234;-33
2022/12/31 12:13:17;;;;;;;7.13;1.87;;;18.40;99.90;;;;;;5057314;28;20440;-33
2022/12/31 12:15:48;;;;;;;3.33;1.37;;;18.40;99.90;;;;;;5064010;28;20192;-33
2022/12/31 12:18:47;;;;;;;4.10;1.33;;;18.50;99.90;;;;;;5056125;28;20563;-33
2022/12/31 12:21:22;;;;;;;4.37;1.40;;;18.50;99.90;;;;;;5064531;28;20302;-33
2022/12/31 12:24:07;;;;;;;3.83;1.20;;;18.40;99.90;;;;;;5062760;28;20200;-33
2022/12/31 12:26:36;;;;;;;11.13;1.70;;;18.50;99.90;;;;;;5057213;28;20262;-33
2022/12/31 12:29:17;;;;;;;4.47;1.70;;;18.50;99.90;;;;;;5060291;28;20682;-33
2022/12/31 12:32:13;;;;;;;8.13;1.90;;;18.50;99.90;;;;;;5063221;28;20227;-33
2022/12/31 12:34:43;;;;;;;5.67;1.80;;;18.50;99.90;;;;;;5051973;28;20204;-32
2022/12/31 12:37:35;;;;;;;5.43;1.65;;;18.50;99.90;;;;;;5065457;28;20203;-33
2022/12/31 12:40:17;;;;;;;5.80;1.70;;;18.50;99.90;;;;;;5055979;28;20207;-33
2022/12/31 12:42:48;;;;;;;5.83;1.67;;;18.50;99.90;;;;;;5061706;28;20519;-33
2022/12/31 12:45:28;;;;;;;5.93;1.60;;;18.50;99.90;;;;;;5063594;28;20207;-33
2022/12/31 12:48:01;;;;;;;4.13;1.60;;;18.50;99.90;;;;;;5057896;28;20239;-33
2022/12/31 12:50:47;;;;;;;5.13;1.80;;;18.40;99.90;;;;;;5063361;28;20209;-33
2022/12/31 12:53:39;;;;;;;7.20;1.80;;;18.40;99.90;;;;;;5064681;28;20987;-33
2022/12/31 12:56:24;;;;;;;5.22;1.65;;;18.30;99.90;;;;;;5061812;28;20955;-33
2022/12/31 12:59:10;;;;;;;5.50;1.60;;;18.30;99.90;;;;;;5044346;28;20211;-33
2022/12/31 13:01:41;;;;;;;6.70;1.90;;;18.30;99.90;;;;;;5058893;28;20321;-33
2022/12/31 13:04:28;;;;;;;6.17;1.97;;;18.20;99.90;;;;;;5065232;28;20191;-33
2022/12/31 13:07:10;;;;;;;6.17;1.67;;;18.20;99.90;;;;;;5052259;28;20210;-33
2022/12/31 13:09:59;;;;;;;6.23;1.57;;;18.20;99.90;;;;;;5058404;28;20200;-32
2022/12/31 13:12:29;;;;;;;4.87;2.00;;;18.20;99.90;;;;;;5074745;28;20220;-32
2022/12/31 13:15:44;;;;;;;6.73;2.27;;;18.20;99.90;;;;;;5057737;28;20623;-33
2022/12/31 13:18:41;;;;;;;5.70;2.23;;;18.20;99.90;;;;;;5066654;28;20541;-32
2022/12/31 13:21:36;;;;;;;5.60;1.80;;;18.20;99.90;;;;;;5063669;28;20303;-33
2022/12/31 13:24:31;;;;;;;7.87;2.23;;;18.20;99.90;;;;;;5057881;28;20219;-33
2022/12/31 13:27:40;;;;;;;8.37;1.90;;;18.20;99.90;;;;;;5059016;28;20235;-34
2022/12/31 13:30:20;;;;;;;6.60;1.70;;;18.20;99.90;;;;;;5062066;28;20578;-33
2022/12/31 13:33:00;;;;;;;6.93;1.80;;;18.20;99.90;;;;;;5062445;28;20230;-34
2022/12/31 13:35:37;;;;;;;5.77;1.90;;;18.10;99.90;;;;;;5062339;28;20215;-33
2022/12/31 13:38:16;;;;;;;4.87;1.53;;;18.20;99.90;;;;;;5064444;28;20203;-32
2022/12/31 13:41:04;;;;;;;5.27;2.10;;;18.10;99.90;;;;;;5066027;28;20627;-32
2022/12/31 13:43:42;;;;;;;8.77;2.00;;;18.10;99.90;;;;;;5082749;28;20254;-32
2022/12/31 13:46:53;;;;;;;5.60;1.87;;;18.10;99.90;;;;;;5048219;28;20265;-33
2022/12/31 13:49:36;;;;;;;7.47;1.90;;;18.00;99.90;;;;;;5049758;28;20211;-30
2022/12/31 13:52:20;;;;;;;6.27;2.10;;;18.10;99.90;;;;;;5059484;28;20247;-30
2022/12/31 13:55:18;;;;;;;6.40;2.10;;;18.10;99.90;;;;;;5064165;28;20204;-30
2022/12/31 13:57:55;;;;;;;7.00;2.13;;;18.10;99.90;;;;;;5053615;28;20254;-30